X  Chiuso Dati meteorologici dell'aviazione (METAR)     LIMC Malpensa International Airport
Temperatura
13°C Temperatura
3°C Punto di rugiada
51% Umidità



Vento
8 KM/O
5 MPH
2 M/S
4 KTS



160°
SSE
Condizioni attuali

Chiaro Chiaro
Pressione 1025.06 (hPa) - 30.27 (inHg)
Visibilità 6 (miglio) - 9.7 (km)
Aeroporto
Codice-Aeroporto LIMC

Posizione: Malpensa International Airport
Distanza: 50 (km)

Metar:
LIMC 211120Z 16004KT 090V210 CAVOK 13/03 Q1025 NOSIG

Ore: 21-02-2024 11:20 CET